A weakened low pressure area is slowly crossing the island chain with limited moisture. Daytime heating and light surface winds could result in isolated showers/thunderstorms during Sunday, but moisture is expected to converge across St. Vincent and the Grenadines (SVG) during Monday and scattered showers are likely by evening into Tuesday. 

Light (less than 10 km/h) and variable winds becoming calm at times should continue this weekend.

Aviation WX

[Source: ADDS]
METAR
TVSA 172000Z 00000KT 9999 SCT023 29/23 Q1007 NOSIG =
TVSA 171700Z 1718/1818 16005KT 9999 SCT016 PROB30 TEMPO 1718/1722 SHRA BKN015
TAF
TVSA 171700Z 1718/1818 16005KT 9999 SCT016 PROB30 TEMPO 1718/1722 SHRA BKN015 =
SR / SS: 10:04 / 21:34 UTC (Sunrise Sunset 2019-11-17)